sensor_id;sensor_type;location;lat;lon;timestamp;pressure;altitude;pressure_sealevel;temperature;humidity
73600;BME280;61877;48.246;9.220;2023-04-06T00:01:25;94299.47;;;-1.70;77.67
73600;BME280;61877;48.246;9.220;2023-04-06T00:03:50;94297.88;;;-1.71;77.17
73600;BME280;61877;48.246;9.220;2023-04-06T00:06:16;94291.59;;;-1.70;77.35
73600;BME280;61877;48.246;9.220;2023-04-06T00:08:42;94301.03;;;-1.74;76.33
73600;BME280;61877;48.246;9.220;2023-04-06T00:11:07;94293.66;;;-1.77;75.98
73600;BME280;61877;48.246;9.220;2023-04-06T00:13:34;94293.09;;;-1.84;75.82
73600;BME280;61877;48.246;9.220;2023-04-06T00:16:00;94289.94;;;-1.86;76.54
73600;BME280;61877;48.246;9.220;2023-04-06T00:18:27;94293.03;;;-1.94;77.30
73600;BME280;61877;48.246;9.220;2023-04-06T00:20:54;94284.59;;;-2.01;76.91
73600;BME280;61877;48.246;9.220;2023-04-06T00:23:19;94295.13;;;-2.01;78.18
73600;BME280;61877;48.246;9.220;2023-04-06T00:25:45;94295.59;;;-2.04;78.15
73600;BME280;61877;48.246;9.220;2023-04-06T00:28:10;94289.84;;;-2.06;78.10
73600;BME280;61877;48.246;9.220;2023-04-06T00:30:36;94287.22;;;-2.06;78.07
73600;BME280;61877;48.246;9.220;2023-04-06T00:33:01;94283.78;;;-2.06;77.90
73600;BME280;61877;48.246;9.220;2023-04-06T00:35:28;94289.53;;;-2.14;77.69
73600;BME280;61877;48.246;9.220;2023-04-06T00:37:54;94286.09;;;-2.15;78.58
73600;BME280;61877;48.246;9.220;2023-04-06T00:40:20;94282.16;;;-2.17;78.47
73600;BME280;61877;48.246;9.220;2023-04-06T00:42:46;94285.50;;;-2.22;78.64
73600;BME280;61877;48.246;9.220;2023-04-06T00:45:11;94282.59;;;-2.25;79.56
73600;BME280;61877;48.246;9.220;2023-04-06T00:47:38;94279.97;;;-2.25;79.08
73600;BME280;61877;48.246;9.220;2023-04-06T00:50:05;94278.16;;;-2.25;78.92
73600;BME280;61877;48.246;9.220;2023-04-06T00:52:33;94274.50;;;-2.24;78.96
73600;BME280;61877;48.246;9.220;2023-04-06T00:54:58;94270.50;;;-2.31;78.97
73600;BME280;61877;48.246;9.220;2023-04-06T00:57:24;94276.53;;;-2.31;78.80
73600;BME280;61877;48.246;9.220;2023-04-06T00:59:49;94268.13;;;-2.33;78.58
73600;BME280;61877;48.246;9.220;2023-04-06T01:02:17;94273.34;;;-2.38;79.07
73600;BME280;61877;48.246;9.220;2023-04-06T01:04:42;94273.84;;;-2.41;78.73
73600;BME280;61877;48.246;9.220;2023-04-06T01:07:09;94267.50;;;-2.45;78.65
73600;BME280;61877;48.246;9.220;2023-04-06T01:09:36;94264.91;;;-2.40;78.71
73600;BME280;61877;48.246;9.220;2023-04-06T01:12:02;94273.03;;;-2.41;79.07
73600;BME280;61877;48.246;9.220;2023-04-06T01:14:30;94266.72;;;-2.45;78.81
73600;BME280;61877;48.246;9.220;2023-04-06T01:16:59;94254.84;;;-2.53;79.68
73600;BME280;61877;48.246;9.220;2023-04-06T01:19:25;94260.06;;;-2.58;80.08
73600;BME280;61877;48.246;9.220;2023-04-06T01:21:50;94260.31;;;-2.59;80.17
73600;BME280;61877;48.246;9.220;2023-04-06T01:24:19;94253.97;;;-2.64;80.23
73600;BME280;61877;48.246;9.220;2023-04-06T01:26:45;94254.78;;;-2.63;79.96
73600;BME280;61877;48.246;9.220;2023-04-06T01:29:14;94255.78;;;-2.69;79.91
73600;BME280;61877;48.246;9.220;2023-04-06T01:31:40;94263.66;;;-2.69;79.68
73600;BME280;61877;48.246;9.220;2023-04-06T01:34:05;94256.28;;;-2.72;79.95
73600;BME280;61877;48.246;9.220;2023-04-06T01:36:31;94245.78;;;-2.72;79.71
73600;BME280;61877;48.246;9.220;2023-04-06T01:38:56;94250.25;;;-2.73;79.90
73600;BME280;61877;48.246;9.220;2023-04-06T01:41:24;94245.50;;;-2.76;79.96
73600;BME280;61877;48.246;9.220;2023-04-06T01:43:49;94239.97;;;-2.79;80.33
73600;BME280;61877;48.246;9.220;2023-04-06T01:46:15;94242.03;;;-2.81;80.37
73600;BME280;61877;48.246;9.220;2023-04-06T01:48:41;94242.00;;;-2.86;80.60
73600;BME280;61877;48.246;9.220;2023-04-06T01:51:08;94244.06;;;-2.88;81.06
73600;BME280;61877;48.246;9.220;2023-04-06T01:53:35;94233.53;;;-2.93;80.85
73600;BME280;61877;48.246;9.220;2023-04-06T01:56:00;94237.72;;;-2.97;80.64
73600;BME280;61877;48.246;9.220;2023-04-06T01:58:29;94238.69;;;-3.03;80.90
73600;BME280;61877;48.246;9.220;2023-04-06T02:00:56;94240.91;;;-2.95;80.26
73600;BME280;61877;48.246;9.220;2023-04-06T02:03:21;94236.66;;;-2.96;80.27
73600;BME280;61877;48.246;9.220;2023-04-06T02:05:48;94238.75;;;-2.98;80.69
73600;BME280;61877;48.246;9.220;2023-04-06T02:08:13;94235.31;;;-3.04;80.43
73600;BME280;61877;48.246;9.220;2023-04-06T02:10:40;94233.44;;;-3.03;80.91
73600;BME280;61877;48.246;9.220;2023-04-06T02:13:06;94233.91;;;-3.11;80.77
73600;BME280;61877;48.246;9.220;2023-04-06T02:15:34;94238.63;;;-3.13;81.02
73600;BME280;61877;48.246;9.220;2023-04-06T02:18:00;94233.88;;;-3.16;81.28
73600;BME280;61877;48.246;9.220;2023-04-06T02:20:25;94226.00;;;-3.16;80.79
73600;BME280;61877;48.246;9.220;2023-04-06T02:22:51;94234.38;;;-3.19;80.77
73600;BME280;61877;48.246;9.220;2023-04-06T02:25:19;94229.63;;;-3.22;80.92
73600;BME280;61877;48.246;9.220;2023-04-06T02:27:45;94230.44;;;-3.22;81.17
73600;BME280;61877;48.246;9.220;2023-04-06T02:30:11;94232.22;;;-3.27;81.02
73600;BME280;61877;48.246;9.220;2023-04-06T02:32:41;94233.22;;;-3.33;81.65
73600;BME280;61877;48.246;9.220;2023-04-06T02:35:07;94235.84;;;-3.33;81.87
73600;BME280;61877;48.246;9.220;2023-04-06T02:37:33;94234.19;;;-3.39;81.78
73600;BME280;61877;48.246;9.220;2023-04-06T02:39:59;94229.19;;;-3.41;81.72
73600;BME280;61877;48.246;9.220;2023-04-06T02:42:28;94229.38;;;-3.47;82.16
73600;BME280;61877;48.246;9.220;2023-04-06T02:44:53;94226.22;;;-3.49;82.02
73600;BME280;61877;48.246;9.220;2023-04-06T02:47:19;94229.88;;;-3.50;82.34
73600;BME280;61877;48.246;9.220;2023-04-06T02:49:46;94224.03;;;-3.57;81.70
73600;BME280;61877;48.246;9.220;2023-04-06T02:52:12;94222.78;;;-3.55;81.96
73600;BME280;61877;48.246;9.220;2023-04-06T02:54:38;94231.91;;;-3.57;81.72
73600;BME280;61877;48.246;9.220;2023-04-06T02:57:03;94226.66;;;-3.57;82.25
73600;BME280;61877;48.246;9.220;2023-04-06T02:59:29;94231.34;;;-3.59;81.48
73600;BME280;61877;48.246;9.220;2023-04-06T03:01:54;94229.53;;;-3.59;81.41
73600;BME280;61877;48.246;9.220;2023-04-06T03:04:20;94227.66;;;-3.63;81.93
73600;BME280;61877;48.246;9.220;2023-04-06T03:06:47;94228.19;;;-3.61;81.65
73600;BME280;61877;48.246;9.220;2023-04-06T03:09:12;94230.28;;;-3.63;82.29
73600;BME280;61877;48.246;9.220;2023-04-06T03:11:37;94228.94;;;-3.66;82.51
73600;BME280;61877;48.246;9.220;2023-04-06T03:14:05;94222.63;;;-3.70;82.48
73600;BME280;61877;48.246;9.220;2023-04-06T03:16:30;94227.00;;;-3.75;82.69
73600;BME280;61877;48.246;9.220;2023-04-06T03:18:57;94221.00;;;-3.71;81.93
73600;BME280;61877;48.246;9.220;2023-04-06T03:21:24;94222.81;;;-3.76;82.37
73600;BME280;61877;48.246;9.220;2023-04-06T03:23:51;94220.94;;;-3.76;82.31
73600;BME280;61877;48.246;9.220;2023-04-06T03:26:17;94220.41;;;-3.78;82.42
73600;BME280;61877;48.246;9.220;2023-04-06T03:28:45;94221.16;;;-3.82;82.88
73600;BME280;61877;48.246;9.220;2023-04-06T03:31:10;94220.31;;;-3.88;82.78
73600;BME280;61877;48.246;9.220;2023-04-06T03:33:36;94219.28;;;-3.87;83.23
73600;BME280;61877;48.246;9.220;2023-04-06T03:36:01;94222.13;;;-3.88;83.10
73600;BME280;61877;48.246;9.220;2023-04-06T03:38:27;94224.69;;;-3.93;83.48
73600;BME280;61877;48.246;9.220;2023-04-06T03:40:54;94222.56;;;-3.97;83.20
73600;BME280;61877;48.246;9.220;2023-04-06T03:43:19;94224.09;;;-4.01;83.85
73600;BME280;61877;48.246;9.220;2023-04-06T03:45:45;94226.47;;;-3.99;83.28
73600;BME280;61877;48.246;9.220;2023-04-06T03:48:10;94221.28;;;-3.94;82.79
73600;BME280;61877;48.246;9.220;2023-04-06T03:50:36;94223.66;;;-3.92;83.05
73600;BME280;61877;48.246;9.220;2023-04-06T03:53:01;94226.75;;;-3.96;82.56
73600;BME280;61877;48.246;9.220;2023-04-06T03:55:26;94224.63;;;-3.99;83.68
73600;BME280;61877;48.246;9.220;2023-04-06T03:57:54;94234.50;;;-4.06;83.56
73600;BME280;61877;48.246;9.220;2023-04-06T04:00:20;94234.44;;;-4.11;83.90
73600;BME280;61877;48.246;9.220;2023-04-06T04:02:45;94230.19;;;-4.17;83.45
73600;BME280;61877;48.246;9.220;2023-04-06T04:05:14;94240.09;;;-4.19;83.67
73600;BME280;61877;48.246;9.220;2023-04-06T04:07:40;94232.25;;;-4.19;83.92
73600;BME280;61877;48.246;9.220;2023-04-06T04:10:06;94230.63;;;-4.25;83.56
73600;BME280;61877;48.246;9.220;2023-04-06T04:12:34;94240.59;;;-4.22;84.60
73600;BME280;61877;48.246;9.220;2023-04-06T04:15:02;94238.53;;;-4.20;83.80
73600;BME280;61877;48.246;9.220;2023-04-06T04:17:30;94234.56;;;-4.22;84.36
73600;BME280;61877;48.246;9.220;2023-04-06T04:19:56;94238.47;;;-4.25;83.81
73600;BME280;61877;48.246;9.220;2023-04-06T04:22:21;94241.84;;;-4.24;83.94
73600;BME280;61877;48.246;9.220;2023-04-06T04:24:47;94243.41;;;-4.28;83.64
73600;BME280;61877;48.246;9.220;2023-04-06T04:27:13;94243.56;;;-4.35;83.67
73600;BME280;61877;48.246;9.220;2023-04-06T04:29:39;94241.47;;;-4.33;83.77
73600;BME280;61877;48.246;9.220;2023-04-06T04:32:09;94236.25;;;-4.33;83.37
73600;BME280;61877;48.246;9.220;2023-04-06T04:34:35;94237.47;;;-4.40;84.04
73600;BME280;61877;48.246;9.220;2023-04-06T04:37:02;94240.88;;;-4.40;84.74
73600;BME280;61877;48.246;9.220;2023-04-06T04:39:31;94241.91;;;-4.41;83.95
73600;BME280;61877;48.246;9.220;2023-04-06T04:41:57;94243.50;;;-4.40;83.95
73600;BME280;61877;48.246;9.220;2023-04-06T04:44:24;94246.81;;;-4.44;83.92
73600;BME280;61877;48.246;9.220;2023-04-06T04:46:49;94237.72;;;-4.42;84.22
73600;BME280;61877;48.246;9.220;2023-04-06T04:49:16;94246.66;;;-4.38;83.94
73600;BME280;61877;48.246;9.220;2023-04-06T04:51:42;94243.00;;;-4.37;84.50
73600;BME280;61877;48.246;9.220;2023-04-06T04:54:08;94247.44;;;-4.37;83.87
73600;BME280;61877;48.246;9.220;2023-04-06T04:56:33;94247.75;;;-4.34;83.70
73600;BME280;61877;48.246;9.220;2023-04-06T04:58:58;94245.94;;;-4.33;83.71
73600;BME280;61877;48.246;9.220;2023-04-06T05:01:33;94252.50;;;-4.31;84.35
73600;BME280;61877;48.246;9.220;2023-04-06T05:03:59;94246.72;;;-4.33;84.17
73600;BME280;61877;48.246;9.220;2023-04-06T05:06:26;94250.13;;;-4.32;84.24
73600;BME280;61877;48.246;9.220;2023-04-06T05:08:51;94249.56;;;-4.34;84.10
73600;BME280;61877;48.246;9.220;2023-04-06T05:11:17;94248.63;;;-4.28;84.28
73600;BME280;61877;48.246;9.220;2023-04-06T05:13:43;94241.91;;;-4.19;83.46
73600;BME280;61877;48.246;9.220;2023-04-06T05:16:08;94253.19;;;-4.19;83.47
73600;BME280;61877;48.246;9.220;2023-04-06T05:18:34;94249.28;;;-4.16;83.48
73600;BME280;61877;48.246;9.220;2023-04-06T05:24:34;94254.84;;;-4.13;83.62
73600;BME280;61877;48.246;9.220;2023-04-06T05:32:37;94258.03;;;-3.89;82.63
73600;BME280;61877;48.246;9.220;2023-04-06T05:38:20;94267.50;;;-3.83;82.12
73600;BME280;61877;48.246;9.220;2023-04-06T05:40:47;94265.00;;;-3.73;82.14
73600;BME280;61877;48.246;9.220;2023-04-06T05:43:12;94265.94;;;-3.62;81.85
73600;BME280;61877;48.246;9.220;2023-04-06T05:45:38;94270.47;;;-3.53;81.01
73600;BME280;61877;48.246;9.220;2023-04-06T05:48:06;94271.38;;;-3.42;81.25
73600;BME280;61877;48.246;9.220;2023-04-06T05:51:04;94272.56;;;-3.28;80.90
73600;BME280;61877;48.246;9.220;2023-04-06T06:15:07;94279.44;;;-1.81;73.72
73600;BME280;61877;48.246;9.220;2023-04-06T06:33:00;94274.91;;;-1.18;72.00
73600;BME280;61877;48.246;9.220;2023-04-06T06:41:59;94274.47;;;-0.70;70.63
73600;BME280;61877;48.246;9.220;2023-04-06T06:44:40;94269.19;;;-0.55;69.89
73600;BME280;61877;48.246;9.220;2023-04-06T06:47:19;94264.97;;;-0.36;70.08
73600;BME280;61877;48.246;9.220;2023-04-06T06:49:59;94271.56;;;-0.44;69.08
73600;BME280;61877;48.246;9.220;2023-04-06T06:52:34;94278.66;;;-0.34;68.79
73600;BME280;61877;48.246;9.220;2023-04-06T06:55:05;94275.47;;;-0.06;68.89
73600;BME280;61877;48.246;9.220;2023-04-06T06:57:32;94277.00;;;0.05;68.88
73600;BME280;61877;48.246;9.220;2023-04-06T07:36:50;94264.47;;;3.13;60.37
73600;BME280;61877;48.246;9.220;2023-04-06T07:42:24;94251.31;;;3.59;58.98
73600;BME280;61877;48.246;9.220;2023-04-06T08:57:29;94217.31;;;9.14;39.07
73600;BME280;61877;48.246;9.220;2023-04-06T08:59:57;94218.44;;;9.13;39.50
73600;BME280;61877;48.246;9.220;2023-04-06T09:02:24;94220.81;;;9.35;38.36
73600;BME280;61877;48.246;9.220;2023-04-06T09:04:53;94215.13;;;9.37;37.56
73600;BME280;61877;48.246;9.220;2023-04-06T09:07:20;94215.78;;;9.54;38.28
73600;BME280;61877;48.246;9.220;2023-04-06T09:09:47;94221.53;;;9.65;37.26
73600;BME280;61877;48.246;9.220;2023-04-06T09:12:23;94220.28;;;9.42;37.43
73600;BME280;61877;48.246;9.220;2023-04-06T09:14:52;94217.19;;;9.72;39.67
73600;BME280;61877;48.246;9.220;2023-04-06T09:17:22;94217.28;;;9.43;36.79
73600;BME280;61877;48.246;9.220;2023-04-06T09:19:49;94208.91;;;9.86;36.43
73600;BME280;61877;48.246;9.220;2023-04-06T09:22:16;94210.84;;;10.18;35.93
73600;BME280;61877;48.246;9.220;2023-04-06T09:24:43;94209.19;;;10.37;36.49
73600;BME280;61877;48.246;9.220;2023-04-06T09:27:12;94210.16;;;10.21;35.64
73600;BME280;61877;48.246;9.220;2023-04-06T09:29:38;94206.97;;;10.52;37.24
73600;BME280;61877;48.246;9.220;2023-04-06T09:32:07;94215.84;;;10.64;36.70
73600;BME280;61877;48.246;9.220;2023-04-06T09:34:33;94219.19;;;10.73;36.45
73600;BME280;61877;48.246;9.220;2023-04-06T09:37:00;94207.25;;;11.71;35.46
73600;BME280;61877;48.246;9.220;2023-04-06T09:39:28;94206.69;;;11.65;34.60
73600;BME280;61877;48.246;9.220;2023-04-06T09:41:55;94203.44;;;11.47;32.27
73600;BME280;61877;48.246;9.220;2023-04-06T09:44:22;94196.00;;;11.81;30.88
73600;BME280;61877;48.246;9.220;2023-04-06T09:46:48;94196.81;;;11.69;31.68
73600;BME280;61877;48.246;9.220;2023-04-06T09:49:18;94192.53;;;12.08;32.83
73600;BME280;61877;48.246;9.220;2023-04-06T09:51:46;94193.72;;;12.38;32.51
73600;BME280;61877;48.246;9.220;2023-04-06T09:54:18;94195.91;;;12.48;31.90
73600;BME280;61877;48.246;9.220;2023-04-06T09:56:51;94193.28;;;12.20;33.73
73600;BME280;61877;48.246;9.220;2023-04-06T09:59:26;94192.69;;;12.27;32.79
73600;BME280;61877;48.246;9.220;2023-04-06T10:01:59;94195.84;;;12.60;33.33
73600;BME280;61877;48.246;9.220;2023-04-06T10:04:37;94192.59;;;12.85;31.74
73600;BME280;61877;48.246;9.220;2023-04-06T10:07:06;94192.63;;;12.70;32.47
73600;BME280;61877;48.246;9.220;2023-04-06T10:09:35;94191.75;;;12.66;31.86
73600;BME280;61877;48.246;9.220;2023-04-06T10:12:04;94196.66;;;12.33;30.63
73600;BME280;61877;48.246;9.220;2023-04-06T10:14:30;94195.91;;;12.94;30.66
73600;BME280;61877;48.246;9.220;2023-04-06T10:16:58;94185.50;;;12.46;29.76
73600;BME280;61877;48.246;9.220;2023-04-06T10:19:36;94191.91;;;12.88;30.67
73600;BME280;61877;48.246;9.220;2023-04-06T10:22:06;94179.81;;;13.29;31.91
73600;BME280;61877;48.246;9.220;2023-04-06T10:24:35;94178.88;;;12.90;31.71
73600;BME280;61877;48.246;9.220;2023-04-06T10:27:04;94184.66;;;13.39;30.49
73600;BME280;61877;48.246;9.220;2023-04-06T10:29:42;94177.91;;;12.98;31.05
73600;BME280;61877;48.246;9.220;2023-04-06T10:32:07;94175.13;;;13.61;31.31
73600;BME280;61877;48.246;9.220;2023-04-06T10:34:36;94180.28;;;13.50;28.68
73600;BME280;61877;48.246;9.220;2023-04-06T10:37:12;94171.97;;;14.16;28.50
73600;BME280;61877;48.246;9.220;2023-04-06T10:39:46;94174.44;;;14.24;28.41
73600;BME280;61877;48.246;9.220;2023-04-06T10:42:13;94166.50;;;14.32;29.54
73600;BME280;61877;48.246;9.220;2023-04-06T10:44:42;94160.81;;;14.37;28.78
73600;BME280;61877;48.246;9.220;2023-04-06T10:47:16;94162.81;;;13.63;28.01
73600;BME280;61877;48.246;9.220;2023-04-06T10:49:44;94169.13;;;13.52;28.26
73600;BME280;61877;48.246;9.220;2023-04-06T10:52:10;94169.66;;;14.79;27.71
73600;BME280;61877;48.246;9.220;2023-04-06T10:54:41;94159.06;;;14.93;25.98
73600;BME280;61877;48.246;9.220;2023-04-06T10:57:09;94161.84;;;14.74;26.90
73600;BME280;61877;48.246;9.220;2023-04-06T10:59:36;94156.72;;;15.40;26.05
73600;BME280;61877;48.246;9.220;2023-04-06T11:02:02;94163.19;;;14.61;25.46
73600;BME280;61877;48.246;9.220;2023-04-06T11:04:29;94167.13;;;14.67;26.41
73600;BME280;61877;48.246;9.220;2023-04-06T11:06:56;94162.47;;;14.22;26.06
73600;BME280;61877;48.246;9.220;2023-04-06T11:09:23;94167.59;;;13.70;27.20
73600;BME280;61877;48.246;9.220;2023-04-06T11:11:52;94164.19;;;13.92;27.15
73600;BME280;61877;48.246;9.220;2023-04-06T11:14:18;94162.06;;;14.43;26.97
73600;BME280;61877;48.246;9.220;2023-04-06T11:16:46;94161.38;;;15.17;27.65
73600;BME280;61877;48.246;9.220;2023-04-06T11:19:12;94164.97;;;15.24;25.95
73600;BME280;61877;48.246;9.220;2023-04-06T11:21:41;94160.66;;;15.20;26.08
73600;BME280;61877;48.246;9.220;2023-04-06T11:24:10;94153.66;;;15.19;27.24
73600;BME280;61877;48.246;9.220;2023-04-06T11:26:38;94149.13;;;14.52;27.86
73600;BME280;61877;48.246;9.220;2023-04-06T11:29:07;94153.47;;;14.79;27.40
73600;BME280;61877;48.246;9.220;2023-04-06T11:31:41;94151.88;;;15.00;27.47
73600;BME280;61877;48.246;9.220;2023-04-06T11:34:12;94145.06;;;15.95;26.52
73600;BME280;61877;48.246;9.220;2023-04-06T11:36:43;94142.28;;;16.21;23.48
73600;BME280;61877;48.246;9.220;2023-04-06T11:39:11;94142.16;;;16.11;25.67
73600;BME280;61877;48.246;9.220;2023-04-06T11:41:41;94138.75;;;16.54;24.79
73600;BME280;61877;48.246;9.220;2023-04-06T11:44:08;94136.63;;;16.00;24.60
73600;BME280;61877;48.246;9.220;2023-04-06T11:46:34;94145.94;;;14.91;26.87
73600;BME280;61877;48.246;9.220;2023-04-06T11:49:01;94143.03;;;13.75;25.66
73600;BME280;61877;48.246;9.220;2023-04-06T11:51:27;94146.53;;;13.94;27.66
73600;BME280;61877;48.246;9.220;2023-04-06T11:53:53;94132.97;;;13.72;27.00
73600;BME280;61877;48.246;9.220;2023-04-06T11:56:30;94137.56;;;14.29;28.80
73600;BME280;61877;48.246;9.220;2023-04-06T11:58:58;94129.75;;;13.66;27.53
73600;BME280;61877;48.246;9.220;2023-04-06T12:01:26;94132.28;;;14.36;26.21
73600;BME280;61877;48.246;9.220;2023-04-06T12:03:53;94125.28;;;15.58;26.95
73600;BME280;61877;48.246;9.220;2023-04-06T12:06:19;94127.53;;;16.52;23.46
73600;BME280;61877;48.246;9.220;2023-04-06T12:08:45;94120.22;;;15.53;24.69
73600;BME280;61877;48.246;9.220;2023-04-06T12:11:11;94116.41;;;14.79;24.36
73600;BME280;61877;48.246;9.220;2023-04-06T12:13:38;94110.28;;;15.64;25.83
73600;BME280;61877;48.246;9.220;2023-04-06T12:16:03;94108.38;;;16.34;25.58
73600;BME280;61877;48.246;9.220;2023-04-06T12:18:33;94113.75;;;16.67;25.00
73600;BME280;61877;48.246;9.220;2023-04-06T12:21:00;94116.19;;;17.44;24.52
73600;BME280;61877;48.246;9.220;2023-04-06T12:23:28;94109.84;;;16.65;22.49
73600;BME280;61877;48.246;9.220;2023-04-06T12:25:54;94103.44;;;16.03;24.09
73600;BME280;61877;48.246;9.220;2023-04-06T12:28:21;94100.13;;;14.98;24.76
73600;BME280;61877;48.246;9.220;2023-04-06T12:30:48;94104.09;;;15.08;25.05
73600;BME280;61877;48.246;9.220;2023-04-06T12:33:14;94091.84;;;15.40;25.44
73600;BME280;61877;48.246;9.220;2023-04-06T12:35:41;94103.16;;;16.52;23.82
73600;BME280;61877;48.246;9.220;2023-04-06T12:38:08;94099.53;;;17.39;21.36
73600;BME280;61877;48.246;9.220;2023-04-06T12:40:38;94104.47;;;17.23;21.74
73600;BME280;61877;48.246;9.220;2023-04-06T12:43:05;94106.38;;;16.64;22.53
73600;BME280;61877;48.246;9.220;2023-04-06T12:45:33;94100.31;;;17.43;25.47
73600;BME280;61877;48.246;9.220;2023-04-06T12:48:02;94088.69;;;18.46;22.45
73600;BME280;61877;48.246;9.220;2023-04-06T12:50:28;94087.38;;;17.87;20.87
73600;BME280;61877;48.246;9.220;2023-04-06T12:53:01;94093.25;;;18.03;23.74
73600;BME280;61877;48.246;9.220;2023-04-06T12:55:30;94083.84;;;17.83;20.87
73600;BME280;61877;48.246;9.220;2023-04-06T12:57:57;94087.78;;;17.96;21.39
73600;BME280;61877;48.246;9.220;2023-04-06T13:00:23;94091.91;;;17.62;21.53
73600;BME280;61877;48.246;9.220;2023-04-06T13:02:49;94086.44;;;16.06;22.62
73600;BME280;61877;48.246;9.220;2023-04-06T13:05:17;94084.59;;;17.73;21.95
73600;BME280;61877;48.246;9.220;2023-04-06T13:07:42;94089.13;;;18.86;21.32
73600;BME280;61877;48.246;9.220;2023-04-06T13:10:08;94086.41;;;18.90;19.98
73600;BME280;61877;48.246;9.220;2023-04-06T13:12:36;94086.75;;;19.34;21.69
73600;BME280;61877;48.246;9.220;2023-04-06T13:15:02;94084.00;;;19.48;22.18
73600;BME280;61877;48.246;9.220;2023-04-06T13:17:29;94079.38;;;18.57;20.94
73600;BME280;61877;48.246;9.220;2023-04-06T13:19:55;94080.53;;;19.37;18.90
73600;BME280;61877;48.246;9.220;2023-04-06T13:22:25;94080.16;;;19.10;18.82
73600;BME280;61877;48.246;9.220;2023-04-06T13:24:52;94072.34;;;18.25;19.09
73600;BME280;61877;48.246;9.220;2023-04-06T13:27:18;94073.69;;;17.59;19.21
73600;BME280;61877;48.246;9.220;2023-04-06T13:29:43;94070.88;;;18.73;22.13
73600;BME280;61877;48.246;9.220;2023-04-06T13:32:10;94068.91;;;19.30;18.37
73600;BME280;61877;48.246;9.220;2023-04-06T13:34:36;94076.69;;;18.85;18.53
73600;BME280;61877;48.246;9.220;2023-04-06T13:37:02;94078.59;;;18.39;18.76
73600;BME280;61877;48.246;9.220;2023-04-06T13:39:29;94075.50;;;19.00;18.20
73600;BME280;61877;48.246;9.220;2023-04-06T13:41:58;94068.13;;;19.29;19.58
73600;BME280;61877;48.246;9.220;2023-04-06T13:44:25;94066.53;;;18.26;18.26
73600;BME280;61877;48.246;9.220;2023-04-06T13:46:54;94069.31;;;18.68;17.50
73600;BME280;61877;48.246;9.220;2023-04-06T13:49:20;94062.28;;;19.38;17.28
73600;BME280;61877;48.246;9.220;2023-04-06T13:51:46;94060.91;;;20.60;15.86
73600;BME280;61877;48.246;9.220;2023-04-06T13:54:12;94061.91;;;20.29;17.90
73600;BME280;61877;48.246;9.220;2023-04-06T13:56:39;94063.88;;;20.80;17.70
73600;BME280;61877;48.246;9.220;2023-04-06T13:59:06;94063.13;;;20.76;15.88
73600;BME280;61877;48.246;9.220;2023-04-06T14:01:31;94053.25;;;22.04;14.27
73600;BME280;61877;48.246;9.220;2023-04-06T14:03:58;94051.94;;;21.48;14.50
73600;BME280;61877;48.246;9.220;2023-04-06T14:06:23;94056.97;;;20.65;18.30
73600;BME280;61877;48.246;9.220;2023-04-06T14:08:49;94061.47;;;19.41;16.82
73600;BME280;61877;48.246;9.220;2023-04-06T14:11:15;94063.03;;;19.42;17.28
73600;BME280;61877;48.246;9.220;2023-04-06T14:13:42;94056.91;;;18.85;17.17
73600;BME280;61877;48.246;9.220;2023-04-06T14:16:08;94058.09;;;20.09;16.88
73600;BME280;61877;48.246;9.220;2023-04-06T14:18:46;94060.38;;;18.92;17.10
73600;BME280;61877;48.246;9.220;2023-04-06T14:21:12;94068.09;;;18.34;18.05
73600;BME280;61877;48.246;9.220;2023-04-06T14:23:38;94069.25;;;19.42;17.74
73600;BME280;61877;48.246;9.220;2023-04-06T14:26:05;94059.34;;;19.90;16.82
73600;BME280;61877;48.246;9.220;2023-04-06T14:28:32;94075.47;;;19.28;18.61
73600;BME280;61877;48.246;9.220;2023-04-06T14:31:01;94076.69;;;18.64;18.91
73600;BME280;61877;48.246;9.220;2023-04-06T14:33:29;94065.03;;;18.81;18.37
73600;BME280;61877;48.246;9.220;2023-04-06T14:35:55;94068.91;;;18.94;18.36
73600;BME280;61877;48.246;9.220;2023-04-06T14:38:24;94068.53;;;18.99;19.22
73600;BME280;61877;48.246;9.220;2023-04-06T14:40:51;94063.81;;;19.28;16.69
73600;BME280;61877;48.246;9.220;2023-04-06T14:43:17;94064.59;;;19.32;17.66
73600;BME280;61877;48.246;9.220;2023-04-06T14:45:43;94067.22;;;17.88;18.53
73600;BME280;61877;48.246;9.220;2023-04-06T14:48:10;94066.16;;;19.15;16.91
73600;BME280;61877;48.246;9.220;2023-04-06T14:50:38;94067.63;;;19.59;18.39
73600;BME280;61877;48.246;9.220;2023-04-06T14:53:04;94055.88;;;20.55;16.58
73600;BME280;61877;48.246;9.220;2023-04-06T14:55:31;94060.00;;;20.19;17.75
73600;BME280;61877;48.246;9.220;2023-04-06T14:57:58;94060.59;;;21.02;16.54
73600;BME280;61877;48.246;9.220;2023-04-06T15:00:23;94058.00;;;20.30;18.54
73600;BME280;61877;48.246;9.220;2023-04-06T15:02:49;94058.47;;;21.57;16.92
73600;BME280;61877;48.246;9.220;2023-04-06T15:05:17;94055.53;;;21.79;16.90
73600;BME280;61877;48.246;9.220;2023-04-06T15:07:43;94056.16;;;21.56;16.30
73600;BME280;61877;48.246;9.220;2023-04-06T15:10:10;94049.94;;;20.71;17.36
73600;BME280;61877;48.246;9.220;2023-04-06T15:12:37;94053.91;;;20.59;16.08
73600;BME280;61877;48.246;9.220;2023-04-06T15:15:07;94047.66;;;19.90;18.82
73600;BME280;61877;48.246;9.220;2023-04-06T15:17:34;94065.81;;;18.47;18.36
73600;BME280;61877;48.246;9.220;2023-04-06T15:20:00;94063.38;;;16.19;21.26
73600;BME280;61877;48.246;9.220;2023-04-06T15:22:31;94065.59;;;16.50;23.11
73600;BME280;61877;48.246;9.220;2023-04-06T15:24:57;94058.41;;;15.25;22.80
73600;BME280;61877;48.246;9.220;2023-04-06T15:27:23;94062.94;;;15.18;22.89
73600;BME280;61877;48.246;9.220;2023-04-06T15:29:49;94071.06;;;15.47;23.59
73600;BME280;61877;48.246;9.220;2023-04-06T15:32:16;94065.50;;;14.81;23.70
73600;BME280;61877;48.246;9.220;2023-04-06T15:34:42;94066.91;;;14.72;23.53
73600;BME280;61877;48.246;9.220;2023-04-06T15:37:10;94066.63;;;14.77;23.13
73600;BME280;61877;48.246;9.220;2023-04-06T15:39:37;94066.81;;;14.91;22.72
73600;BME280;61877;48.246;9.220;2023-04-06T15:42:03;94070.19;;;14.84;22.73
73600;BME280;61877;48.246;9.220;2023-04-06T15:44:30;94073.78;;;14.66;22.15
73600;BME280;61877;48.246;9.220;2023-04-06T15:46:56;94062.88;;;14.59;22.66
73600;BME280;61877;48.246;9.220;2023-04-06T15:49:25;94065.88;;;14.31;24.00